Time;durP1;ratioP1;P1;durP2;ratioP2;P2;SDS_P1;SDS_P2;PMS_P1;PMS_P2;Temp;Humidity;BMP_temperature;BMP_pressure;BME280_temperature;BME280_humidity;BME280_pressure;Samples;Min_cycle;Max_cycle;Signal;HPM_P1;HPM_P2
2021/07/27 05:55:14;;;;;;;16.12;8.30;;;;;;;32.08;45.24;98110.19;1684570;80;21428;-70
2021/07/27 05:57:43;;;;;;;9.48;7.28;;;;;;;32.42;43.12;98111.58;1668498;85;20940;-67
2021/07/27 06:00:12;;;;;;;9.90;6.03;;;;;;;32.64;41.83;98110.78;1668436;86;20940;-68
2021/07/27 06:02:40;;;;;;;21.95;7.17;;;;;;;32.83;41.56;98109.39;1668683;86;21101;-75
2021/07/27 06:05:08;;;;;;;15.10;7.30;;;;;;;33.04;41.59;98107.70;1668741;85;21081;-72
2021/07/27 06:07:34;;;;;;;13.60;6.97;;;;;;;33.26;41.18;98104.09;1638244;87;20890;-75
2021/07/27 06:10:00;;;;;;;10.98;6.10;;;;;;;33.42;41.40;98101.75;1638360;87;20974;-71
2021/07/27 06:12:37;;;;;;;14.47;6.87;;;;;;;33.65;40.16;98115.08;1664010;86;21545;-82
2021/07/27 06:15:07;;;;;;;10.55;6.33;;;;;;;33.81;40.25;98115.53;1664268;86;21513;-70
2021/07/27 06:17:34;;;;;;;13.45;6.25;;;;;;;34.02;39.92;98111.52;1664249;86;20937;-71
2021/07/27 06:20:00;;;;;;;15.03;6.47;;;;;;;34.25;39.08;98116.45;1638270;87;21049;-69
2021/07/27 06:22:27;;;;;;;13.85;8.23;;;;;;;34.45;38.23;98107.39;1638652;86;21012;-72
2021/07/27 06:24:54;;;;;;;15.00;7.60;;;;;;;34.67;38.42;98107.24;1668595;86;20888;-71
2021/07/27 06:27:21;;;;;;;19.12;8.78;;;;;;;34.85;38.41;98112.39;1668578;86;21543;-71
2021/07/27 06:29:48;;;;;;;12.28;6.30;;;;;;;35.02;38.17;98104.36;1668782;86;21556;-71
2021/07/27 06:32:16;;;;;;;15.90;6.17;;;;;;;35.15;38.15;98094.09;1668766;86;20846;-75
2021/07/27 06:34:44;;;;;;;11.53;7.33;;;;;;;35.24;38.18;98096.64;1668502;86;20904;-69
2021/07/27 06:37:12;;;;;;;13.78;7.55;;;;;;;35.33;38.08;98096.13;1656764;86;20889;-77
2021/07/27 06:39:39;;;;;;;10.98;5.97;;;;;;;35.40;37.71;98103.70;1669013;86;21128;-66
2021/07/27 06:42:06;;;;;;;10.50;6.50;;;;;;;35.44;37.60;98107.59;1638649;87;21016;-69
2021/07/27 06:44:33;;;;;;;13.62;6.72;;;;;;;35.51;37.27;98101.20;1670372;85;20889;-69
2021/07/27 06:47:00;;;;;;;12.03;8.63;;;;;;;35.58;36.77;98101.75;1656903;86;20933;-70
2021/07/27 06:49:28;;;;;;;11.25;5.62;;;;;;;35.67;36.56;98104.02;1668775;86;20945;-69
2021/07/27 06:51:54;;;;;;;14.53;5.95;;;;;;;35.74;36.08;98112.95;1657047;86;21238;-70
2021/07/27 06:54:21;;;;;;;11.35;5.37;;;;;;;35.82;35.85;98113.82;1672704;84;21052;-70
2021/07/27 06:56:48;;;;;;;11.57;5.47;;;;;;;35.83;36.15;98113.28;1694729;84;21485;-70
2021/07/27 06:59:16;;;;;;;10.63;5.62;;;;;;;35.83;36.09;98114.67;1694752;84;21004;-69
2021/07/27 07:01:43;;;;;;;11.85;5.12;;;;;;;35.86;35.80;98114.95;1695077;84;20893;-69
2021/07/27 07:04:11;;;;;;;11.90;6.15;;;;;;;35.90;35.84;98111.89;1694552;84;21139;-70
2021/07/27 07:06:40;;;;;;;10.23;6.42;;;;;;;35.94;36.42;98108.80;1694604;84;20906;-64
2021/07/27 07:09:06;;;;;;;11.65;7.60;;;;;;;35.98;36.66;98102.94;1664423;84;21494;-69
2021/07/27 07:11:32;;;;;;;13.05;7.60;;;;;;;36.04;36.05;98114.11;1694848;84;20894;-68
2021/07/27 07:13:59;;;;;;;11.90;6.00;;;;;;;36.07;35.83;98103.77;1694627;84;20913;-70
2021/07/27 07:16:25;;;;;;;14.30;7.33;;;;;;;36.11;35.58;98106.30;1694643;84;21486;-69
2021/07/27 07:18:52;;;;;;;15.15;7.17;;;;;;;36.16;34.73;98112.70;1694619;84;21415;-68
2021/07/27 07:21:18;;;;;;;12.33;7.47;;;;;;;36.21;34.34;98111.86;1694930;84;20969;-68
2021/07/27 07:23:45;;;;;;;11.90;8.88;;;;;;;36.20;34.99;98104.58;1694427;84;20965;-67
2021/07/27 07:26:12;;;;;;;9.18;5.78;;;;;;;36.17;34.44;98112.13;1694952;84;20902;-65
2021/07/27 07:28:38;;;;;;;12.82;6.45;;;;;;;36.13;34.03;98102.66;1694712;84;21531;-68
2021/07/27 07:31:10;;;;;;;12.58;9.10;;;;;;;36.07;34.34;98102.38;1694735;84;21004;-66
2021/07/27 07:33:37;;;;;;;16.97;10.17;;;;;;;36.07;34.84;98111.59;1694872;84;21426;-68
2021/07/27 07:36:14;;;;;;;12.75;7.70;;;;;;;36.05;34.73;98107.41;1661048;86;21416;-68
2021/07/27 07:38:41;;;;;;;14.03;10.05;;;;;;;36.05;34.66;98104.62;1694458;84;20956;-67
2021/07/27 07:41:09;;;;;;;15.80;10.25;;;;;;;36.11;35.14;98110.48;1659931;86;21133;-69
2021/07/27 07:43:38;;;;;;;20.00;6.17;;;;;;;36.18;34.64;98102.64;1694087;84;20961;-69
2021/07/27 07:46:05;;;;;;;14.25;6.58;;;;;;;36.26;34.37;98111.88;1694478;84;20949;-70
2021/07/27 07:48:33;;;;;;;13.55;6.97;;;;;;;36.33;34.72;98101.27;1694550;84;20914;-71
2021/07/27 07:50:59;;;;;;;18.52;6.15;;;;;;;36.39;33.62;98104.04;1694913;84;20968;-70
2021/07/27 07:53:25;;;;;;;13.03;5.92;;;;;;;36.47;33.86;98110.45;1694483;84;21526;-72
2021/07/27 07:55:52;;;;;;;13.83;7.05;;;;;;;36.58;34.05;98116.32;1689858;84;20933;-70
2021/07/27 07:58:19;;;;;;;15.15;5.92;;;;;;;36.70;33.80;98110.39;1658725;86;21448;-70
2021/07/27 08:00:46;;;;;;;11.28;6.17;;;;;;;36.82;33.61;98112.92;1658593;86;21009;-70
2021/07/27 08:03:12;;;;;;;17.48;6.12;;;;;;;36.91;33.09;98111.75;1668628;86;20940;-72
2021/07/27 08:05:43;;;;;;;13.25;5.03;;;;;;;36.99;32.65;98105.56;1659047;86;21561;-71
2021/07/27 08:08:10;;;;;;;11.38;5.25;;;;;;;37.03;31.89;98104.70;1657897;86;21005;-71
2021/07/27 08:10:39;;;;;;;14.95;5.22;;;;;;;37.09;31.36;98104.70;1658663;86;20974;-72
2021/07/27 08:13:06;;;;;;;9.38;5.08;;;;;;;37.13;31.68;98102.98;1658593;86;20966;-72
2021/07/27 08:15:32;;;;;;;9.38;5.12;;;;;;;37.18;31.89;98109.95;1658781;86;20941;-71
2021/07/27 08:17:59;;;;;;;9.65;5.60;;;;;;;37.22;30.42;98106.89;1668436;86;21147;-71
2021/07/27 08:20:27;;;;;;;8.63;5.20;;;;;;;37.23;30.74;98111.37;1659023;86;20843;-70
2021/07/27 08:22:53;;;;;;;8.30;5.05;;;;;;;37.25;30.19;98107.72;1668295;86;21429;-70
2021/07/27 08:25:22;;;;;;;13.65;5.42;;;;;;;37.22;30.12;98112.48;1659147;86;20934;-69
2021/07/27 08:27:49;;;;;;;10.25;5.67;;;;;;;37.16;30.11;98103.81;1668508;86;20936;-71
2021/07/27 08:30:17;;;;;;;12.13;5.53;;;;;;;37.12;29.79;98110.55;1658864;86;22128;-70
2021/07/27 08:32:48;;;;;;;9.03;6.00;;;;;;;37.02;29.68;98105.84;1658592;86;20910;-69
2021/07/27 08:35:16;;;;;;;10.95;5.58;;;;;;;36.97;30.16;98114.24;1668518;86;21569;-70
2021/07/27 08:37:44;;;;;;;17.50;6.28;;;;;;;36.96;30.10;98113.98;1658595;86;21415;-71
2021/07/27 08:40:13;;;;;;;14.65;6.58;;;;;;;36.96;30.54;98111.19;1658755;86;21408;-70
2021/07/27 08:42:41;;;;;;;11.35;5.42;;;;;;;36.95;29.52;98113.70;1658479;86;20918;-70
2021/07/27 08:45:09;;;;;;;11.45;5.50;;;;;;;36.91;29.71;98114.55;1658589;86;20922;-70
2021/07/27 08:47:36;;;;;;;13.65;5.65;;;;;;;36.86;29.60;98111.21;1658680;86;20961;-69
2021/07/27 08:50:05;;;;;;;9.45;5.60;;;;;;;36.79;29.06;98119.92;1668388;86;20909;-71
2021/07/27 08:52:32;;;;;;;11.40;5.33;;;;;;;36.67;29.26;98117.39;1659008;86;20887;-71
2021/07/27 08:54:59;;;;;;;11.68;5.58;;;;;;;36.54;29.96;98111.00;1658982;86;21485;-71
2021/07/27 08:57:27;;;;;;;9.23;5.62;;;;;;;36.45;30.09;98111.30;1695357;84;20989;-70
2021/07/27 08:59:57;;;;;;;18.48;6.20;;;;;;;36.36;29.55;98120.84;1695945;84;21617;-70
2021/07/27 09:02:30;;;;;;;13.30;5.55;;;;;;;36.28;29.72;98123.64;1695697;84;20992;-71
2021/07/27 09:05:09;;;;;;;14.35;5.42;;;;;;;36.18;29.93;98107.66;1695855;84;20989;-70
2021/07/27 09:07:37;;;;;;;15.30;5.85;;;;;;;36.15;30.67;98119.97;1695767;84;21133;-68
2021/07/27 09:10:23;;;;;;;10.10;5.17;;;;;;;36.14;30.18;98115.52;1695749;84;20901;-73
2021/07/27 09:13:08;;;;;;;8.03;5.42;;;;;;;36.13;30.21;98123.62;1695723;84;20902;-69
2021/07/27 09:15:41;;;;;;;11.33;5.45;;;;;;;36.11;30.30;98111.89;1695251;84;20945;-68
2021/07/27 09:18:16;;;;;;;8.55;5.42;;;;;;;35.98;30.00;98114.66;1695827;84;20929;-69
2021/07/27 09:20:49;;;;;;;9.98;5.50;;;;;;;35.89;30.22;98108.81;1696121;84;21763;-69
2021/07/27 09:23:19;;;;;;;9.63;5.35;;;;;;;35.81;30.11;98116.35;1654574;85;20981;-69
2021/07/27 09:25:50;;;;;;;10.25;5.60;;;;;;;35.75;30.06;98118.29;1678194;85;20902;-69
2021/07/27 09:28:19;;;;;;;8.28;5.30;;;;;;;35.71;30.29;98119.09;1695554;84;20992;-68
2021/07/27 09:30:46;;;;;;;8.93;5.30;;;;;;;35.66;30.47;98116.30;1696025;84;21600;-69
2021/07/27 09:33:16;;;;;;;8.75;5.75;;;;;;;35.56;30.62;98120.75;1695878;84;21959;-69
2021/07/27 09:35:45;;;;;;;7.22;4.90;;;;;;;35.51;31.27;98116.55;1695337;84;20838;-69
2021/07/27 09:38:17;;;;;;;13.88;5.70;;;;;;;35.50;31.22;98126.61;1695755;84;20874;-69
2021/07/27 09:40:56;;;;;;;8.28;5.35;;;;;;;35.44;31.58;98121.55;1695853;84;20941;-67
2021/07/27 09:43:25;;;;;;;13.18;5.95;;;;;;;35.41;32.25;98126.30;1695916;84;20897;-69
2021/07/27 09:45:56;;;;;;;12.93;6.78;;;;;;;35.39;31.91;98120.16;1695766;84;21454;-69
2021/07/27 09:48:23;;;;;;;9.80;5.40;;;;;;;35.39;32.71;98120.16;1695150;84;20905;-69
2021/07/27 09:50:53;;;;;;;83.42;8.88;;;;;;;35.38;32.59;98118.47;1695764;84;20909;-68
2021/07/27 09:53:22;;;;;;;18.20;6.33;;;;;;;35.37;31.63;98119.60;1695922;84;20993;-69
2021/07/27 09:55:51;;;;;;;9.40;5.30;;;;;;;35.36;32.01;98110.36;1686411;84;20904;-69
2021/07/27 09:58:19;;;;;;;20.72;6.25;;;;;;;35.37;31.94;98115.41;1656731;86;21790;-69
2021/07/27 10:00:55;;;;;;;10.28;5.30;;;;;;;35.40;32.55;98113.47;1668744;86;20920;-70
2021/07/27 10:03:26;;;;;;;11.45;4.85;;;;;;;35.41;31.72;98115.12;1656694;86;21346;-71
2021/07/27 10:05:54;;;;;;;11.25;5.87;;;;;;;35.39;32.08;98114.57;1668700;86;21462;-69
2021/07/27 10:08:31;;;;;;;13.62;5.90;;;;;;;35.37;31.93;98114.02;1668574;86;20853;-68
2021/07/27 10:11:13;;;;;;;15.80;6.28;;;;;;;35.36;32.78;98117.91;1656552;86;21137;-70
2021/07/27 10:13:48;;;;;;;7.78;5.70;;;;;;;35.31;31.55;98120.70;1656576;86;21422;-72
2021/07/27 10:16:22;;;;;;;10.53;5.60;;;;;;;35.22;30.92;98111.41;1668733;85;20857;-71
2021/07/27 10:18:49;;;;;;;9.63;5.35;;;;;;;35.13;31.34;98122.84;1638344;87;21009;-72
2021/07/27 10:21:25;;;;;;;10.43;5.47;;;;;;;35.01;32.33;98122.23;1669055;85;20991;-69
2021/07/27 10:23:59;;;;;;;11.85;5.35;;;;;;;34.90;31.55;98120.78;1668870;86;21106;-70
2021/07/27 10:26:29;;;;;;;9.35;4.72;;;;;;;34.83;32.12;98127.18;1636567;87;20922;-70
2021/07/27 10:28:56;;;;;;;12.33;5.95;;;;;;;34.80;32.25;98120.75;1628340;87;21209;-68
2021/07/27 10:31:37;;;;;;;10.30;5.45;;;;;;;34.76;33.03;98115.41;1638169;87;22147;-70
2021/07/27 10:34:06;;;;;;;11.93;5.42;;;;;;;34.79;32.83;98113.48;1669314;85;20885;-70
2021/07/27 10:36:43;;;;;;;16.37;6.03;;;;;;;34.81;32.24;98123.80;1668554;86;20908;-70
2021/07/27 10:39:18;;;;;;;10.28;5.78;;;;;;;34.83;32.91;98127.18;1668863;86;20937;-66
2021/07/27 10:41:50;;;;;;;13.83;6.00;;;;;;;34.78;31.39;98122.95;1656673;86;21467;-68
2021/07/27 10:44:23;;;;;;;10.10;5.75;;;;;;;34.75;32.16;98116.52;1668542;86;20976;-67
2021/07/27 10:46:51;;;;;;;;;;;;;;;34.72;33.50;98118.41;1671180;86;20944;-66
2021/07/27 10:49:27;;;;;;;8.20;5.20;;;;;;;34.66;31.41;98118.97;1657022;86;21147;-67
2021/07/27 10:52:01;;;;;;;9.88;4.90;;;;;;;34.57;31.82;98120.02;1668641;86;20896;-66
2021/07/27 10:54:32;;;;;;;20.37;6.35;;;;;;;34.51;31.75;98114.12;1669004;86;21469;-66
2021/07/27 10:57:02;;;;;;;11.22;5.08;;;;;;;34.44;31.93;98109.35;1681760;84;20894;-66
2021/07/27 10:59:32;;;;;;;8.98;5.15;;;;;;;34.41;33.03;98108.50;1687491;85;20945;-66
2021/07/27 11:02:01;;;;;;;7.53;4.42;;;;;;;34.39;32.27;98096.22;1687501;85;21139;-67
2021/07/27 11:04:31;;;;;;;11.05;5.87;;;;;;;34.37;32.05;98100.38;1685564;85;21047;-69
2021/07/27 11:07:15;;;;;;;12.53;6.35;;;;;;;34.29;32.67;98095.31;1687547;85;20906;-66
2021/07/27 11:09:59;;;;;;;11.08;4.75;;;;;;;34.23;32.63;98097.24;1687399;85;20913;-72
2021/07/27 11:12:38;;;;;;;12.20;5.58;;;;;;;34.19;32.74;98085.73;1687441;85;21605;-72
2021/07/27 11:15:18;;;;;;;11.63;5.28;;;;;;;34.17;33.48;98085.73;1687760;85;21122;-74
2021/07/27 11:17:52;;;;;;;10.53;5.37;;;;;;;34.18;33.43;98084.08;1687547;85;21397;-74
2021/07/27 11:20:34;;;;;;;129.45;13.55;;;;;;;34.23;34.31;98081.91;1687417;85;20985;-73
2021/07/27 11:23:08;;;;;;;29.35;6.30;;;;;;;34.28;33.17;98077.76;1649928;86;20954;-69
2021/07/27 11:25:34;;;;;;;14.43;5.37;;;;;;;34.36;34.81;98069.45;1658956;86;20887;-69
2021/07/27 11:28:15;;;;;;;10.85;4.80;;;;;;;34.41;33.44;98068.64;1668697;86;21960;-70
2021/07/27 11:30:42;;;;;;;11.12;5.55;;;;;;;34.42;32.62;98062.80;1658801;86;20870;-69
2021/07/27 11:33:15;;;;;;;6.50;4.50;;;;;;;34.40;33.75;98067.78;1658617;86;20981;-67
2021/07/27 11:35:47;;;;;;;14.13;5.87;;;;;;;34.35;32.86;98052.42;1664169;86;20911;-67
2021/07/27 11:38:25;;;;;;;9.68;4.58;;;;;;;34.30;32.92;98056.02;1664060;86;20956;-67
2021/07/27 11:41:09;;;;;;;8.50;4.78;;;;;;;34.24;32.73;98060.45;1664130;86;21126;-69
2021/07/27 11:43:41;;;;;;;16.77;7.90;;;;;;;34.15;33.24;98060.92;1680490;85;20988;-67
2021/07/27 11:46:16;;;;;;;7.33;5.75;;;;;;;34.10;33.62;98056.69;1685367;85;20957;-67
2021/07/27 11:48:43;;;;;;;12.23;5.22;;;;;;;34.10;33.32;98059.47;1684903;85;20953;-67
2021/07/27 11:51:10;;;;;;;9.78;5.00;;;;;;;34.11;33.14;98062.56;1685034;85;20961;-66
2021/07/27 11:53:39;;;;;;;10.58;6.05;;;;;;;34.11;32.99;98054.20;1684906;85;21113;-66
2021/07/27 11:56:14;;;;;;;12.55;4.85;;;;;;;34.10;32.51;98058.08;1683651;85;20942;-67
2021/07/27 11:58:40;;;;;;;14.07;5.20;;;;;;;34.11;32.63;98059.77;1695837;84;20945;-66
2021/07/27 12:01:07;;;;;;;12.95;5.17;;;;;;;34.09;33.13;98063.39;1695999;84;21036;-67
2021/07/27 12:03:33;;;;;;;12.82;5.00;;;;;;;34.08;32.98;98051.95;1695871;84;20890;-68
2021/07/27 12:06:12;;;;;;;13.93;5.05;;;;;;;34.09;33.13;98050.84;1695821;84;23149;-67
2021/07/27 12:08:39;;;;;;;14.05;6.03;;;;;;;34.09;33.27;98064.78;1695707;84;20929;-67
2021/07/27 12:11:07;;;;;;;13.68;5.62;;;;;;;34.08;32.88;98063.09;1695773;84;21040;-67
2021/07/27 12:13:34;;;;;;;9.50;4.70;;;;;;;34.10;33.19;98062.83;1695754;84;20905;-64
2021/07/27 12:16:00;;;;;;;8.08;4.72;;;;;;;34.12;32.90;98058.67;1696268;84;20905;-66
2021/07/27 12:18:26;;;;;;;9.10;4.47;;;;;;;34.15;33.27;98044.20;1695924;84;21134;-68
2021/07/27 12:20:53;;;;;;;13.78;5.45;;;;;;;34.18;33.04;98051.17;1695839;84;21443;-67
2021/07/27 12:23:20;;;;;;;8.90;4.47;;;;;;;34.22;34.01;98055.11;1695853;84;20929;-67
2021/07/27 12:25:47;;;;;;;9.25;4.58;;;;;;;34.28;33.52;98058.78;1696083;84;21556;-67
2021/07/27 12:28:14;;;;;;;11.88;4.65;;;;;;;34.33;32.13;98061.62;1695663;84;21427;-67
2021/07/27 12:30:41;;;;;;;8.05;4.08;;;;;;;34.33;32.09;98059.66;1695831;84;21181;-65
2021/07/27 12:33:10;;;;;;;14.10;5.78;;;;;;;34.34;32.10;98070.25;1695792;84;20898;-64
2021/07/27 12:35:38;;;;;;;18.20;5.55;;;;;;;34.30;31.75;98066.34;1696150;84;20956;-65
2021/07/27 12:38:06;;;;;;;15.60;4.78;;;;;;;34.27;31.65;98062.70;1695759;84;20913;-64
2021/07/27 12:40:33;;;;;;;7.85;4.62;;;;;;;34.27;31.99;98061.30;1696080;84;20933;-64
2021/07/27 12:43:00;;;;;;;14.85;5.17;;;;;;;34.29;32.47;98066.05;1695787;84;21158;-65
2021/07/27 12:45:27;;;;;;;12.43;4.80;;;;;;;34.29;31.69;98072.45;1695748;84;21030;-66
2021/07/27 12:47:55;;;;;;;13.93;5.87;;;;;;;34.28;32.10;98071.32;1695875;84;20925;-66
2021/07/27 12:50:22;;;;;;;6.35;3.80;;;;;;;34.20;30.84;98074.88;1695780;84;20916;-64
2021/07/27 12:52:48;;;;;;;8.40;4.95;;;;;;;34.12;31.51;98080.10;1696170;84;21005;-65
2021/07/27 12:55:15;;;;;;;7.35;4.30;;;;;;;34.03;31.95;98074.20;1695984;84;21834;-65
2021/07/27 12:57:41;;;;;;;13.50;4.53;;;;;;;33.98;32.35;98072.78;1689676;84;20929;-65
2021/07/27 13:00:09;;;;;;;8.33;5.40;;;;;;;33.89;32.76;98069.64;1658726;86;20974;-65
2021/07/27 13:02:36;;;;;;;9.33;5.05;;;;;;;33.78;32.73;98067.31;1659070;86;20863;-65
2021/07/27 13:05:03;;;;;;;9.83;4.67;;;;;;;33.66;32.99;98074.44;1668574;86;20932;-65
2021/07/27 13:07:29;;;;;;;6.30;4.15;;;;;;;33.55;32.81;98084.34;1658591;86;21211;-65
2021/07/27 13:09:57;;;;;;;6.80;4.25;;;;;;;33.30;32.97;98089.92;1658645;86;20879;-65
2021/07/27 13:12:24;;;;;;;11.50;5.30;;;;;;;33.30;32.97;98089.92;1668887;86;20952;-64
2021/07/27 13:14:51;;;;;;;11.57;5.62;;;;;;;33.21;34.15;98099.31;1658579;86;20926;-65
2021/07/27 13:17:17;;;;;;;7.40;4.65;;;;;;;33.09;34.54;98098.57;1668553;86;20948;-67
2021/07/27 13:19:44;;;;;;;10.60;4.50;;;;;;;33.01;35.06;98102.66;1658635;86;21157;-65
2021/07/27 13:22:11;;;;;;;12.80;5.80;;;;;;;32.93;35.23;98090.59;1658524;86;20867;-65
2021/07/27 13:24:37;;;;;;;10.63;5.08;;;;;;;32.84;34.80;98096.32;1668772;86;21003;-65
2021/07/27 13:27:05;;;;;;;10.13;5.45;;;;;;;32.74;35.31;98087.30;1658739;86;20875;-65
2021/07/27 13:29:32;;;;;;;10.35;6.33;;;;;;;32.67;35.53;98093.06;1664527;86;20878;-65
2021/07/27 13:31:58;;;;;;;5.28;4.55;;;;;;;32.58;36.49;98094.02;1668465;86;21796;-64
2021/07/27 13:34:24;;;;;;;7.78;5.00;;;;;;;32.41;36.69;98094.05;1658844;86;21419;-65
2021/07/27 13:36:51;;;;;;;12.80;4.95;;;;;;;32.41;36.69;98094.05;1668502;86;20850;-64
2021/07/27 13:39:17;;;;;;;9.93;5.05;;;;;;;32.24;36.85;98092.71;1658987;86;20890;-65
2021/07/27 13:41:44;;;;;;;9.35;4.90;;;;;;;32.24;36.85;98092.71;1668463;86;20901;-65
2021/07/27 13:44:10;;;;;;;10.23;5.83;;;;;;;32.17;37.19;98092.59;1658699;86;21217;-65
2021/07/27 13:46:38;;;;;;;10.48;6.12;;;;;;;32.13;37.92;98091.41;1668309;86;20988;-64
2021/07/27 13:49:04;;;;;;;14.05;6.95;;;;;;;32.08;37.92;98095.47;1658795;86;20880;-65
2021/07/27 13:51:31;;;;;;;8.25;6.47;;;;;;;32.03;39.24;98097.61;1668418;86;20944;-65
2021/07/27 13:53:59;;;;;;;12.60;6.37;;;;;;;31.98;39.03;98096.98;1658913;86;20986;-64
2021/07/27 13:56:26;;;;;;;9.95;6.25;;;;;;;31.95;38.78;98091.10;1658882;85;21130;-65
2021/07/27 13:58:52;;;;;;;9.28;6.50;;;;;;;31.93;40.56;98094.13;1695513;84;20929;-65
2021/07/27 14:01:19;;;;;;;10.20;6.22;;;;;;;31.91;40.30;98093.52;1695752;84;20909;-64
2021/07/27 14:03:46;;;;;;;12.03;6.40;;;;;;;31.87;39.96;98088.20;1695810;84;20934;-64
2021/07/27 14:06:14;;;;;;;10.32;6.45;;;;;;;31.79;39.66;98091.39;1695673;84;20898;-65
2021/07/27 14:08:41;;;;;;;13.88;6.15;;;;;;;31.70;40.52;98091.78;1695752;84;21163;-66
2021/07/27 14:11:08;;;;;;;9.63;6.35;;;;;;;31.61;39.74;98087.73;1695929;84;21031;-65
2021/07/27 14:13:34;;;;;;;13.18;6.40;;;;;;;31.52;40.69;98090.63;1695786;84;20921;-65
2021/07/27 14:16:00;;;;;;;12.75;6.80;;;;;;;31.43;41.33;98085.18;1695750;84;20992;-66
2021/07/27 14:18:27;;;;;;;15.72;7.28;;;;;;;31.34;41.02;98091.14;1696183;84;21028;-66
2021/07/27 14:20:54;;;;;;;19.15;7.67;;;;;;;31.24;42.20;98090.09;1666193;84;21199;-65
2021/07/27 14:23:20;;;;;;;12.98;6.87;;;;;;;31.15;42.43;98086.86;1695763;84;20949;-66
2021/07/27 14:25:47;;;;;;;11.75;7.37;;;;;;;31.08;41.85;98086.19;1695810;84;20992;-64
2021/07/27 14:28:13;;;;;;;12.28;6.75;;;;;;;31.02;42.96;98096.88;1695993;84;20909;-65
2021/07/27 14:30:39;;;;;;;11.05;7.37;;;;;;;30.97;42.47;98102.61;1695787;84;21493;-64
2021/07/27 14:33:06;;;;;;;14.95;7.78;;;;;;;30.94;42.15;98098.91;1696077;84;21287;-65
2021/07/27 14:35:33;;;;;;;18.92;7.87;;;;;;;30.91;42.79;98092.47;1695661;84;21374;-64
2021/07/27 14:38:03;;;;;;;13.80;7.78;;;;;;;30.90;44.06;98093.54;1695920;84;21486;-66
2021/07/27 14:40:30;;;;;;;16.02;8.00;;;;;;;30.88;43.91;98088.80;1695716;84;20901;-66
2021/07/27 14:42:57;;;;;;;18.07;8.65;;;;;;;30.86;42.98;98085.99;1696072;84;21032;-65
2021/07/27 14:45:23;;;;;;;15.95;8.03;;;;;;;30.84;44.23;98091.78;1695852;84;21145;-65
2021/07/27 14:47:49;;;;;;;13.93;7.20;;;;;;;30.83;43.28;98095.63;1695925;84;21000;-64
2021/07/27 14:50:17;;;;;;;12.80;7.00;;;;;;;30.80;43.58;98085.03;1695714;84;21035;-65
2021/07/27 14:52:44;;;;;;;20.90;9.00;;;;;;;30.79;42.92;98091.65;1695779;84;21006;-64
2021/07/27 14:55:13;;;;;;;15.25;7.17;;;;;;;30.77;42.46;98093.84;1696169;84;20945;-66
2021/07/27 14:57:39;;;;;;;18.77;8.28;;;;;;;30.77;43.66;98091.89;1683842;84;21180;-66
2021/07/27 15:00:08;;;;;;;11.50;7.50;;;;;;;30.79;44.58;98088.87;1668843;86;20921;-65
2021/07/27 15:02:34;;;;;;;12.20;6.70;;;;;;;30.78;44.17;98088.60;1638581;87;20933;-65
2021/07/27 15:05:01;;;;;;;19.67;8.43;;;;;;;30.79;44.18;98086.11;1629105;87;20973;-65
2021/07/27 15:07:27;;;;;;;16.48;8.13;;;;;;;30.79;45.53;98080.56;1638610;87;21606;-66
2021/07/27 15:09:53;;;;;;;25.55;9.38;;;;;;;30.79;44.80;98080.56;1670976;84;21177;-66
2021/07/27 15:12:20;;;;;;;12.58;9.05;;;;;;;30.79;45.36;98081.95;1668769;86;20952;-65
2021/07/27 15:14:46;;;;;;;18.37;8.85;;;;;;;30.78;44.79;98078.90;1668851;85;20987;-66
2021/07/27 15:17:17;;;;;;;17.92;10.53;;;;;;;30.75;44.79;98080.22;1668754;86;48730;-66
2021/07/27 15:19:42;;;;;;;17.00;11.48;;;;;;;30.71;45.45;98087.33;1638477;85;20965;-65
2021/07/27 15:22:09;;;;;;;21.10;11.50;;;;;;;30.65;45.93;98095.78;1639116;86;21090;-65
2021/07/27 15:24:36;;;;;;;23.40;13.05;;;;;;;30.52;46.09;98104.66;1638230;87;20970;-66
2021/07/27 15:27:03;;;;;;;22.37;12.30;;;;;;;30.39;46.40;98109.08;1665191;86;20909;-64
2021/07/27 15:29:29;;;;;;;19.00;11.85;;;;;;;30.26;46.61;98102.66;1664514;86;21470;-65
2021/07/27 15:31:55;;;;;;;16.37;12.55;;;;;;;30.15;46.49;98103.52;1664479;86;20885;-65
2021/07/27 15:34:22;;;;;;;16.57;13.00;;;;;;;30.02;46.47;98124.50;1638500;86;21162;-65
2021/07/27 15:36:52;;;;;;;19.00;11.90;;;;;;;29.81;47.00;98133.67;1638440;87;20930;-65
2021/07/27 15:39:18;;;;;;;19.98;13.18;;;;;;;29.65;47.53;98135.72;1668974;86;20952;-65
2021/07/27 15:41:46;;;;;;;20.23;12.45;;;;;;;29.47;48.04;98126.92;1657050;86;20917;-65
2021/07/27 15:44:12;;;;;;;16.27;11.15;;;;;;;29.34;48.48;98129.35;1638413;87;20914;-65
2021/07/27 15:46:39;;;;;;;14.55;11.33;;;;;;;29.17;48.85;98125.84;1669590;84;21151;-65
2021/07/27 15:49:08;;;;;;;18.32;11.43;;;;;;;29.03;49.33;98127.09;1656988;86;20917;-68
2021/07/27 15:51:34;;;;;;;15.63;10.78;;;;;;;28.91;49.48;98124.80;1638364;87;20898;-70
2021/07/27 15:54:03;;;;;;;17.62;11.38;;;;;;;28.77;49.73;98119.41;1670300;84;21053;-69
2021/07/27 15:56:30;;;;;;;19.23;13.18;;;;;;;28.63;50.15;98125.66;1638285;87;20977;-67
2021/07/27 15:58:58;;;;;;;18.52;12.93;;;;;;;28.51;50.21;98121.06;1658488;86;21159;-65
2021/07/27 16:01:25;;;;;;;25.12;13.22;;;;;;;28.40;50.64;98123.53;1695442;84;20941;-65
2021/07/27 16:03:51;;;;;;;17.23;11.85;;;;;;;28.30;50.80;98120.43;1662027;86;20907;-65
2021/07/27 16:06:20;;;;;;;24.02;12.47;;;;;;;28.22;51.43;98127.13;1695812;84;21016;-65
2021/07/27 16:08:47;;;;;;;18.55;12.85;;;;;;;28.14;51.66;98126.55;1662010;86;20918;-66
2021/07/27 16:11:17;;;;;;;23.77;12.82;;;;;;;28.05;51.99;98133.75;1695675;84;21188;-74
2021/07/27 16:13:43;;;;;;;19.40;11.85;;;;;;;27.97;52.43;98144.21;1695683;84;20945;-76
2021/07/27 16:16:09;;;;;;;20.70;12.30;;;;;;;27.89;53.06;98139.78;1676941;85;20937;-75
2021/07/27 16:18:36;;;;;;;23.65;13.00;;;;;;;27.82;53.24;98143.14;1677693;85;21380;-77
2021/07/27 16:21:02;;;;;;;17.23;10.32;;;;;;;27.77;53.40;98143.81;1677250;85;20843;-78
2021/07/27 16:23:28;;;;;;;16.50;11.38;;;;;;;27.71;53.31;98140.56;1678706;85;21543;-76
2021/07/27 16:25:56;;;;;;;20.45;11.28;;;;;;;27.63;53.16;98144.44;1678851;85;20906;-73
2021/07/27 16:28:22;;;;;;;16.52;10.23;;;;;;;27.56;53.24;98134.83;1678598;85;20866;-71
2021/07/27 16:30:51;;;;;;;14.35;10.10;;;;;;;27.50;53.70;98134.34;1678676;85;20954;-77
2021/07/27 16:33:17;;;;;;;14.05;10.78;;;;;;;27.45;54.26;98136.93;1679371;84;20973;-70
2021/07/27 16:35:45;;;;;;;23.62;10.05;;;;;;;27.40;53.72;98140.86;1694941;84;21178;-68
2021/07/27 16:38:11;;;;;;;17.07;10.58;;;;;;;27.36;54.21;98141.84;1695708;84;20988;-69
2021/07/27 16:40:38;;;;;;;18.10;10.32;;;;;;;27.33;54.08;98138.15;1662349;86;20981;-68
2021/07/27 16:43:05;;;;;;;19.75;12.65;;;;;;;27.32;54.66;98143.88;1666026;84;20933;-71
2021/07/27 16:45:35;;;;;;;20.23;13.32;;;;;;;27.31;55.44;98149.08;1661980;86;20918;-67
2021/07/27 16:48:03;;;;;;;26.23;14.70;;;;;;;27.26;55.75;98146.98;1695879;84;22075;-68
2021/07/27 16:50:30;;;;;;;24.40;16.00;;;;;;;27.19;56.08;98150.28;1695934;84;20936;-68
2021/07/27 16:52:57;;;;;;;25.35;15.80;;;;;;;27.09;56.56;98146.63;1695766;84;21040;-68
2021/07/27 16:55:26;;;;;;;37.13;20.05;;;;;;;26.99;57.07;98161.39;1695720;84;20865;-69
2021/07/27 16:57:53;;;;;;;27.58;16.73;;;;;;;26.86;58.00;98156.78;1689267;84;20905;-67
2021/07/27 17:00:19;;;;;;;29.02;15.93;;;;;;;26.75;58.70;98165.19;1638438;87;21151;-68
2021/07/27 17:02:46;;;;;;;23.40;13.58;;;;;;;26.64;59.18;98166.66;1638463;87;21477;-68
2021/07/27 17:05:12;;;;;;;21.15;12.85;;;;;;;26.52;59.29;98173.91;1669369;84;21496;-67
2021/07/27 17:07:41;;;;;;;16.87;12.55;;;;;;;26.44;59.43;98175.49;1656373;86;21449;-68
2021/07/27 17:10:15;;;;;;;16.82;12.85;;;;;;;26.36;59.65;98181.23;1638550;87;21049;-67
2021/07/27 17:12:37;;;;;;;15.85;11.75;;;;;;;26.28;59.72;98188.66;1667881;86;21884;-68
2021/07/27 17:15:06;;;;;;;17.25;10.88;;;;;;;26.23;59.91;98189.81;1668829;86;21466;-66
2021/07/27 17:17:32;;;;;;;17.27;12.63;;;;;;;26.17;60.14;98176.06;1638400;87;20970;-69
2021/07/27 17:19:59;;;;;;;16.15;11.30;;;;;;;26.12;60.04;98180.82;1669207;85;20936;-67
2021/07/27 17:22:25;;;;;;;16.67;10.88;;;;;;;26.09;60.33;98179.86;1668702;86;20877;-68
2021/07/27 17:24:51;;;;;;;17.77;10.60;;;;;;;26.03;60.21;98173.83;1668765;86;21094;-69